Time;durP1;ratioP1;P1;durP2;ratioP2;P2;SDS_P1;SDS_P2;PMS_P1;PMS_P2;Temp;Humidity;BMP_temperature;BMP_pressure;BME280_temperature;BME280_humidity;BME280_pressure;Samples;Min_cycle;Max_cycle;Signal;HPM_P1;HPM_P2
2021/04/11 00:01:25;;;;;;;13.80;11.88;;;5.00;99.90;;;;;;5031147;28;20473;-57
2021/04/11 00:03:50;;;;;;;15.18;13.05;;;4.90;99.90;;;;;;5031144;28;20029;-57
2021/04/11 00:06:16;;;;;;;14.45;12.90;;;4.90;99.90;;;;;;5031441;28;20057;-57
2021/04/11 00:08:42;;;;;;;14.68;13.15;;;4.80;99.90;;;;;;5031017;28;20025;-58
2021/04/11 00:11:07;;;;;;;13.75;12.07;;;4.80;99.90;;;;;;5031582;28;20029;-57
2021/04/11 00:13:36;;;;;;;12.95;11.55;;;4.80;99.90;;;;;;5030999;28;20554;-57
2021/04/11 00:16:03;;;;;;;13.48;12.07;;;4.80;99.90;;;;;;5031396;28;20025;-57
2021/04/11 00:18:28;;;;;;;12.52;11.10;;;4.80;99.90;;;;;;5031023;28;20064;-57
2021/04/11 00:20:54;;;;;;;14.35;11.93;;;4.80;99.90;;;;;;5033677;28;20049;-58
2021/04/11 00:23:23;;;;;;;11.43;10.23;;;4.80;99.90;;;;;;5034755;28;20048;-58
2021/04/11 00:25:48;;;;;;;10.85;9.75;;;4.90;99.90;;;;;;5034599;28;20096;-58
2021/04/11 00:28:16;;;;;;;9.32;8.43;;;4.80;99.90;;;;;;5034685;28;20512;-58
2021/04/11 00:30:42;;;;;;;9.60;8.70;;;4.80;99.90;;;;;;5034856;28;20049;-58
2021/04/11 00:33:09;;;;;;;9.02;8.15;;;4.80;99.90;;;;;;5034497;28;20026;-58
2021/04/11 00:35:35;;;;;;;9.20;8.23;;;4.80;99.90;;;;;;5033538;28;20486;-58
2021/04/11 00:38:01;;;;;;;9.20;8.23;;;4.70;99.90;;;;;;5034623;28;20032;-58
2021/04/11 00:40:36;;;;;;;9.07;7.97;;;4.70;99.90;;;;;;5034123;28;20026;-57
2021/04/11 00:43:08;;;;;;;9.82;8.82;;;4.70;99.90;;;;;;5034373;28;20025;-58
2021/04/11 00:45:55;;;;;;;9.52;8.52;;;4.80;99.90;;;;;;5034002;28;20045;-57
2021/04/11 00:48:23;;;;;;;8.70;7.80;;;4.80;99.90;;;;;;5034507;28;20037;-57
2021/04/11 00:50:58;;;;;;;9.80;8.80;;;4.70;99.90;;;;;;5034022;28;20026;-57
2021/04/11 00:53:24;;;;;;;8.75;7.82;;;4.70;99.90;;;;;;5033719;28;20029;-57
2021/04/11 00:55:50;;;;;;;8.80;7.93;;;4.70;99.90;;;;;;5030739;28;20469;-57
2021/04/11 00:58:16;;;;;;;9.30;8.30;;;4.70;99.90;;;;;;5030372;28;20041;-57
2021/04/11 01:00:42;;;;;;;9.23;8.27;;;4.70;99.90;;;;;;5029442;28;20021;-57
2021/04/11 01:03:08;;;;;;;10.15;9.13;;;4.70;99.90;;;;;;5030049;28;20473;-57
2021/04/11 01:05:39;;;;;;;9.68;8.63;;;4.70;99.90;;;;;;5033785;28;20088;-57
2021/04/11 01:08:10;;;;;;;10.10;9.10;;;4.60;99.90;;;;;;5034175;28;20536;-57
2021/04/11 01:10:41;;;;;;;10.07;9.00;;;4.60;99.90;;;;;;5033823;28;20029;-58
2021/04/11 01:13:07;;;;;;;10.50;9.45;;;4.70;99.90;;;;;;5033825;28;20030;-58
2021/04/11 01:15:34;;;;;;;11.20;9.65;;;4.70;99.90;;;;;;5034178;28;20044;-58
2021/04/11 01:18:00;;;;;;;9.43;8.30;;;4.70;99.90;;;;;;5032754;28;20518;-58
2021/04/11 01:20:27;;;;;;;8.77;7.88;;;4.70;99.90;;;;;;5033732;28;20053;-58
2021/04/11 01:23:16;;;;;;;9.00;7.82;;;4.60;99.90;;;;;;5033367;28;20083;-58
2021/04/11 01:25:43;;;;;;;9.10;8.20;;;4.50;99.90;;;;;;5033337;28;20021;-59
2021/04/11 01:28:15;;;;;;;9.20;8.30;;;4.50;99.90;;;;;;5032459;28;20029;-59
2021/04/11 01:30:42;;;;;;;9.70;8.73;;;4.50;99.90;;;;;;5033460;28;20390;-59
2021/04/11 01:33:12;;;;;;;10.35;9.35;;;4.50;99.90;;;;;;5031231;28;20597;-59
2021/04/11 01:35:38;;;;;;;10.65;9.55;;;4.50;99.90;;;;;;5033119;28;20243;-59
2021/04/11 01:38:05;;;;;;;11.80;9.48;;;4.50;99.90;;;;;;5033255;28;20031;-59
2021/04/11 01:40:52;;;;;;;11.25;10.05;;;4.60;99.90;;;;;;5033072;28;20554;-59
2021/04/11 01:43:19;;;;;;;11.38;10.05;;;4.60;99.90;;;;;;5033122;28;20517;-59
2021/04/11 01:45:45;;;;;;;11.85;10.40;;;4.50;99.90;;;;;;5031883;28;20025;-59
2021/04/11 01:48:11;;;;;;;11.85;10.18;;;4.60;99.90;;;;;;5033259;28;20033;-59
2021/04/11 01:50:39;;;;;;;11.95;10.43;;;4.50;99.90;;;;;;5033220;28;20057;-59
2021/04/11 01:53:06;;;;;;;12.00;10.80;;;4.50;99.90;;;;;;5033031;28;20038;-59
2021/04/11 01:55:32;;;;;;;12.25;11.00;;;4.50;99.90;;;;;;5031108;28;20049;-59
2021/04/11 01:57:58;;;;;;;13.95;12.45;;;4.50;99.90;;;;;;5031765;28;20034;-59
2021/04/11 02:00:24;;;;;;;14.82;12.57;;;4.50;99.90;;;;;;5032691;28;20025;-58
2021/04/11 02:02:57;;;;;;;13.95;12.38;;;4.50;99.90;;;;;;5032883;28;20049;-57
2021/04/11 02:05:23;;;;;;;13.40;11.45;;;4.40;99.90;;;;;;5032654;28;20097;-58
2021/04/11 02:07:52;;;;;;;15.73;13.68;;;4.40;99.90;;;;;;5032630;28;20022;-57
2021/04/11 02:10:24;;;;;;;14.57;13.07;;;4.40;99.90;;;;;;5031345;28;20049;-57
2021/04/11 02:12:53;;;;;;;16.33;14.48;;;4.40;99.90;;;;;;5032558;28;20064;-57
2021/04/11 02:15:33;;;;;;;19.48;16.33;;;4.30;99.90;;;;;;5032554;28;20030;-57
2021/04/11 02:17:58;;;;;;;19.67;16.52;;;4.30;99.90;;;;;;5032539;28;20428;-57
2021/04/11 02:20:28;;;;;;;21.88;18.10;;;4.30;99.90;;;;;;5032285;28;20018;-58
2021/04/11 02:22:55;;;;;;;24.30;20.27;;;4.30;99.90;;;;;;5032078;28;20030;-58
2021/04/11 02:25:25;;;;;;;26.77;20.90;;;4.30;99.90;;;;;;5031748;28;20075;-57
2021/04/11 02:27:51;;;;;;;27.10;21.00;;;4.30;99.90;;;;;;5032241;28;20037;-57
2021/04/11 02:30:18;;;;;;;25.88;20.52;;;4.30;99.90;;;;;;5032415;28;20041;-58
2021/04/11 02:32:44;;;;;;;28.08;22.17;;;4.30;99.90;;;;;;5031865;28;20091;-58
2021/04/11 02:35:14;;;;;;;25.55;20.55;;;4.30;99.90;;;;;;5030539;28;20029;-58
2021/04/11 02:37:43;;;;;;;24.60;19.45;;;4.30;99.90;;;;;;5032187;28;20047;-58
2021/04/11 02:40:21;;;;;;;21.67;17.42;;;4.30;99.90;;;;;;5032524;28;20401;-58
2021/04/11 02:42:47;;;;;;;20.65;16.33;;;4.30;99.90;;;;;;5032176;28;20033;-58
2021/04/11 02:45:19;;;;;;;19.13;15.85;;;4.30;99.90;;;;;;5031771;28;20106;-58
2021/04/11 02:47:45;;;;;;;20.10;16.85;;;4.30;99.90;;;;;;5032252;28;20071;-58
2021/04/11 02:50:13;;;;;;;20.55;17.08;;;4.30;99.90;;;;;;5031794;28;20037;-59
2021/04/11 02:52:54;;;;;;;21.60;17.65;;;4.30;99.90;;;;;;5030533;28;20506;-59
2021/04/11 02:55:20;;;;;;;21.58;17.00;;;4.30;99.90;;;;;;5031538;28;20045;-58
2021/04/11 02:57:46;;;;;;;22.90;18.42;;;4.20;99.90;;;;;;5031732;28;20072;-59
2021/04/11 03:00:20;;;;;;;27.02;21.83;;;4.20;99.90;;;;;;5032085;28;20072;-59
2021/04/11 03:02:46;;;;;;;28.85;21.42;;;4.30;99.90;;;;;;5031466;28;20026;-59
2021/04/11 03:05:13;;;;;;;33.40;24.63;;;4.20;99.90;;;;;;5031864;28;20025;-59
2021/04/11 03:07:46;;;;;;;32.33;22.98;;;4.30;99.90;;;;;;5032129;28;20028;-59
2021/04/11 03:10:28;;;;;;;31.40;23.42;;;4.30;99.90;;;;;;5030098;28;20022;-59
2021/04/11 03:12:55;;;;;;;30.95;23.30;;;4.30;99.90;;;;;;5031681;28;20061;-59
2021/04/11 03:15:22;;;;;;;33.78;24.33;;;4.30;99.90;;;;;;5031699;28;20386;-59
2021/04/11 03:17:51;;;;;;;31.40;23.33;;;4.30;99.90;;;;;;5030375;28;20068;-59
2021/04/11 03:20:19;;;;;;;32.25;24.00;;;4.30;99.90;;;;;;5031705;28;20378;-59
2021/04/11 03:22:45;;;;;;;35.78;25.20;;;4.30;99.90;;;;;;5031410;28;20059;-59
2021/04/11 03:25:13;;;;;;;33.78;24.42;;;4.40;99.90;;;;;;5031385;28;20029;-59
2021/04/11 03:28:04;;;;;;;35.00;25.70;;;4.40;99.90;;;;;;5032037;28;20021;-60
2021/04/11 03:30:31;;;;;;;35.25;25.65;;;4.40;99.90;;;;;;5032485;28;20022;-59
2021/04/11 03:33:04;;;;;;;34.35;25.58;;;4.30;99.90;;;;;;5031331;28;20025;-60
2021/04/11 03:35:33;;;;;;;33.63;23.73;;;4.40;99.90;;;;;;5031516;28;20568;-59
2021/04/11 03:38:02;;;;;;;34.70;24.73;;;4.40;99.90;;;;;;5031499;28;20485;-59
2021/04/11 03:40:33;;;;;;;36.70;26.58;;;4.40;99.90;;;;;;5031221;28;20572;-59
2021/04/11 03:43:07;;;;;;;35.67;25.20;;;4.40;99.90;;;;;;5031773;28;20029;-59
2021/04/11 03:45:34;;;;;;;34.70;25.58;;;4.40;99.90;;;;;;5030455;28;20080;-60
2021/04/11 03:48:15;;;;;;;32.47;23.92;;;4.30;99.90;;;;;;5031694;28;20402;-59
2021/04/11 03:50:50;;;;;;;34.97;24.63;;;4.30;99.90;;;;;;5030304;28;20040;-59
2021/04/11 03:53:31;;;;;;;34.47;24.30;;;4.30;99.90;;;;;;5031323;28;20383;-59
2021/04/11 03:56:04;;;;;;;30.98;22.50;;;4.40;99.90;;;;;;5034054;28;20049;-59
2021/04/11 03:58:41;;;;;;;32.85;22.45;;;4.30;99.90;;;;;;5035238;28;20037;-59
2021/04/11 04:01:13;;;;;;;31.58;23.20;;;4.30;99.90;;;;;;5035782;28;20025;-59
2021/04/11 04:03:41;;;;;;;32.33;23.33;;;4.30;99.90;;;;;;5034837;28;20040;-59
2021/04/11 04:06:30;;;;;;;33.28;24.75;;;4.30;99.90;;;;;;5033815;28;20025;-59
2021/04/11 04:08:56;;;;;;;31.13;21.70;;;4.30;99.90;;;;;;5033548;28;20040;-59
2021/04/11 04:11:57;;;;;;;31.00;23.13;;;4.30;99.90;;;;;;5035103;28;20038;-59
2021/04/11 04:14:42;;;;;;;29.00;23.10;;;4.20;99.90;;;;;;5034239;28;20021;-59
2021/04/11 04:17:13;;;;;;;28.17;21.58;;;4.30;99.90;;;;;;5035028;28;20064;-59
2021/04/11 04:19:44;;;;;;;27.40;21.17;;;4.30;99.90;;;;;;5034959;28;20079;-60
2021/04/11 04:22:28;;;;;;;26.98;20.90;;;4.20;99.90;;;;;;5035072;28;20032;-59
2021/04/11 04:25:07;;;;;;;24.83;20.20;;;4.20;99.90;;;;;;5034349;28;20640;-59
2021/04/11 04:27:53;;;;;;;23.60;19.35;;;4.20;99.90;;;;;;5035326;28;20022;-59
2021/04/11 04:30:32;;;;;;;22.35;17.75;;;4.30;99.90;;;;;;5022699;28;20040;-59
2021/04/11 04:33:03;;;;;;;20.40;16.30;;;4.30;99.90;;;;;;5033497;28;20025;-59
2021/04/11 04:35:54;;;;;;;18.67;16.55;;;4.20;99.90;;;;;;5034570;28;20048;-59
2021/04/11 04:38:33;;;;;;;19.48;17.35;;;4.20;99.90;;;;;;5034454;28;20044;-59
2021/04/11 04:41:09;;;;;;;21.42;16.65;;;4.20;99.90;;;;;;5034511;28;20045;-59
2021/04/11 04:43:50;;;;;;;22.35;17.58;;;4.20;99.90;;;;;;5034664;28;20061;-60
2021/04/11 04:46:32;;;;;;;20.52;17.67;;;4.20;99.90;;;;;;5034761;28;20033;-59
2021/04/11 04:49:18;;;;;;;19.35;16.65;;;4.20;99.90;;;;;;5034468;28;20033;-59
2021/04/11 04:51:55;;;;;;;18.25;14.63;;;4.30;99.90;;;;;;5033713;28;20041;-59
2021/04/11 04:54:39;;;;;;;17.75;13.35;;;4.30;99.90;;;;;;5034096;28;20101;-59
2021/04/11 04:57:20;;;;;;;20.40;15.05;;;4.20;99.90;;;;;;5034460;28;20472;-59
2021/04/11 05:00:04;;;;;;;17.52;13.63;;;4.20;99.90;;;;;;5034082;28;20033;-59
2021/04/11 05:02:45;;;;;;;16.38;13.75;;;4.20;99.90;;;;;;5034260;28;20453;-59
2021/04/11 05:05:12;;;;;;;15.88;12.85;;;4.20;99.90;;;;;;5034052;28;20033;-59
2021/04/11 05:07:46;;;;;;;15.38;11.85;;;4.20;99.90;;;;;;5031559;28;20032;-60
2021/04/11 05:10:33;;;;;;;16.02;13.40;;;4.20;99.90;;;;;;5034026;28;20382;-59
2021/04/11 05:13:11;;;;;;;18.92;14.65;;;4.20;99.90;;;;;;5034203;28;20458;-59
2021/04/11 05:15:42;;;;;;;16.27;13.10;;;4.20;99.90;;;;;;5034084;28;20121;-59
2021/04/11 05:18:18;;;;;;;18.88;13.93;;;4.30;99.90;;;;;;5033719;28;20033;-59
2021/04/11 05:20:50;;;;;;;18.15;14.15;;;4.30;99.90;;;;;;5034005;28;20067;-60
2021/04/11 05:23:26;;;;;;;20.08;14.20;;;4.20;99.90;;;;;;5032709;28;20108;-60
2021/04/11 05:26:13;;;;;;;19.38;14.77;;;4.20;99.90;;;;;;5033865;28;20028;-60
2021/04/11 05:28:44;;;;;;;18.85;14.30;;;4.20;99.90;;;;;;5033714;28;20029;-60
2021/04/11 05:31:26;;;;;;;18.23;14.05;;;4.30;99.90;;;;;;5031907;28;20481;-59
2021/04/11 05:33:54;;;;;;;17.95;13.73;;;4.30;99.90;;;;;;5033756;28;20025;-59
2021/04/11 05:36:28;;;;;;;17.45;13.85;;;4.30;99.90;;;;;;5033600;28;20095;-59
2021/04/11 05:39:31;;;;;;;23.13;14.07;;;4.30;99.90;;;;;;5033543;28;20386;-60
2021/04/11 05:41:59;;;;;;;21.30;14.77;;;4.30;99.90;;;;;;5033764;28;20035;-60
2021/04/11 05:44:49;;;;;;;21.45;14.65;;;4.40;99.90;;;;;;5033376;28;20029;-60
2021/04/11 05:47:43;;;;;;;17.98;14.38;;;4.40;99.90;;;;;;5025840;28;20486;-60
2021/04/11 05:50:17;;;;;;;20.42;13.98;;;4.40;99.90;;;;;;5033261;28;20098;-60
2021/04/11 05:52:47;;;;;;;15.35;12.18;;;4.40;99.90;;;;;;5033572;28;20532;-59
2021/04/11 05:55:16;;;;;;;15.35;12.50;;;4.40;99.90;;;;;;5031247;28;20052;-59
2021/04/11 05:57:59;;;;;;;15.38;12.07;;;4.50;99.90;;;;;;5032274;28;20112;-60
2021/04/11 06:00:35;;;;;;;13.50;11.77;;;4.50;99.90;;;;;;5033421;28;20478;-60
2021/04/11 06:03:05;;;;;;;16.50;12.10;;;4.50;99.90;;;;;;5033346;28;20441;-60
2021/04/11 06:05:48;;;;;;;16.90;11.73;;;4.50;99.90;;;;;;5033572;28;20026;-60
2021/04/11 06:08:40;;;;;;;16.92;11.52;;;4.60;99.90;;;;;;5033414;28;20096;-60
2021/04/11 06:11:14;;;;;;;15.50;12.07;;;4.50;99.90;;;;;;5032981;28;20033;-60
2021/04/11 06:13:58;;;;;;;14.52;9.80;;;4.60;99.90;;;;;;5033601;28;20159;-60
2021/04/11 06:16:26;;;;;;;12.07;10.23;;;4.60;99.90;;;;;;5033541;28;20029;-60
2021/04/11 06:18:54;;;;;;;12.85;9.93;;;4.50;99.90;;;;;;5032964;28;20040;-60
2021/04/11 06:21:31;;;;;;;14.80;10.60;;;4.60;99.90;;;;;;5032960;28;20013;-60
2021/04/11 06:24:21;;;;;;;14.23;10.02;;;4.50;99.90;;;;;;5032962;28;20053;-60
2021/04/11 06:27:11;;;;;;;13.85;10.07;;;4.50;99.90;;;;;;5031657;28;20025;-60
2021/04/11 06:30:28;;;;;;;15.38;10.73;;;4.60;99.90;;;;;;5030879;28;20132;-60
2021/04/11 06:33:09;;;;;;;11.88;8.57;;;4.70;99.90;;;;;;5009237;28;20108;-60
2021/04/11 06:35:45;;;;;;;12.18;8.80;;;4.70;99.90;;;;;;5032828;28;20027;-60
2021/04/11 06:38:14;;;;;;;12.23;8.35;;;4.70;99.90;;;;;;5031454;28;20340;-60
2021/04/11 06:40:52;;;;;;;12.20;7.97;;;4.70;99.90;;;;;;5032723;28;20079;-60
2021/04/11 06:43:32;;;;;;;9.57;6.90;;;4.80;99.90;;;;;;5032804;28;20422;-61
2021/04/11 06:46:39;;;;;;;9.63;6.50;;;4.80;99.90;;;;;;5033036;28;20021;-60
2021/04/11 06:49:29;;;;;;;10.55;6.45;;;4.90;99.90;;;;;;5031242;28;20141;-60
2021/04/11 06:52:07;;;;;;;8.75;6.72;;;5.00;99.90;;;;;;5031383;28;20053;-60
2021/04/11 06:54:51;;;;;;;8.95;6.65;;;5.10;99.90;;;;;;5031075;28;20029;-60
2021/04/11 06:57:33;;;;;;;8.73;6.80;;;5.10;99.90;;;;;;5031145;28;20045;-60
2021/04/11 07:00:21;;;;;;;10.05;6.70;;;5.10;99.90;;;;;;5031209;28;20490;-60
2021/04/11 07:03:14;;;;;;;11.50;6.03;;;5.20;99.90;;;;;;5032842;28;20381;-60
2021/04/11 07:05:57;;;;;;;10.57;5.95;;;5.10;99.90;;;;;;5033671;28;20133;-60
2021/04/11 07:08:52;;;;;;;7.95;6.07;;;5.20;99.90;;;;;;5032928;28;20445;-60
2021/04/11 07:11:27;;;;;;;8.15;5.60;;;5.10;99.90;;;;;;5031102;28;20115;-60
2021/04/11 07:14:41;;;;;;;10.15;6.20;;;5.20;99.90;;;;;;5032063;28;20028;-60
2021/04/11 07:17:40;;;;;;;10.25;5.95;;;5.20;99.90;;;;;;5032404;28;20556;-60
2021/04/11 07:20:39;;;;;;;10.98;5.78;;;5.40;99.90;;;;;;5030659;28;20390;-60
2021/04/11 07:23:34;;;;;;;6.53;5.10;;;5.50;99.90;;;;;;5031882;28;20540;-60
2021/04/11 07:26:22;;;;;;;9.32;4.85;;;5.50;99.90;;;;;;5030668;28;20477;-60
2021/04/11 07:29:07;;;;;;;11.55;5.47;;;5.60;99.90;;;;;;5032113;28;20029;-60
2021/04/11 07:32:06;;;;;;;10.35;5.25;;;5.50;99.90;;;;;;5034446;28;20025;-60
2021/04/11 07:35:00;;;;;;;6.93;3.67;;;5.50;99.90;;;;;;5035316;28;20021;-60
2021/04/11 07:37:49;;;;;;;9.15;3.70;;;5.50;99.90;;;;;;5035418;28;20440;-60
2021/04/11 07:40:28;;;;;;;6.97;3.58;;;5.50;99.90;;;;;;5035972;28;20021;-60
2021/04/11 07:43:11;;;;;;;9.00;3.90;;;5.40;99.90;;;;;;5036180;28;20034;-60
2021/04/11 07:45:59;;;;;;;13.07;3.40;;;5.50;99.90;;;;;;5035839;28;20021;-60
2021/04/11 07:48:45;;;;;;;8.73;3.47;;;5.50;99.90;;;;;;5035130;28;20276;-60
2021/04/11 07:51:28;;;;;;;10.80;3.70;;;5.60;99.90;;;;;;5035237;28;20025;-60
2021/04/11 07:54:06;;;;;;;10.77;3.30;;;5.70;99.90;;;;;;5034412;28;20025;-60
2021/04/11 07:57:05;;;;;;;7.68;3.15;;;5.80;99.90;;;;;;5034073;28;20038;-60
2021/04/11 07:59:40;;;;;;;4.95;2.78;;;6.10;99.90;;;;;;5033173;28;20030;-60
2021/04/11 08:02:38;;;;;;;10.45;3.20;;;6.10;99.90;;;;;;5035049;28;20017;-60
2021/04/11 08:05:25;;;;;;;9.57;3.17;;;6.20;99.90;;;;;;5031403;28;20041;-60
2021/04/11 08:08:06;;;;;;;7.97;3.33;;;6.40;99.90;;;;;;5034630;28;20533;-60
2021/04/11 08:11:00;;;;;;;8.93;2.85;;;6.40;99.90;;;;;;5034275;28;20100;-60
2021/04/11 08:13:37;;;;;;;6.05;3.10;;;6.20;99.90;;;;;;5034547;28;20026;-60
2021/04/11 08:16:07;;;;;;;8.27;3.20;;;6.10;99.90;;;;;;5032982;28;20021;-60
2021/04/11 08:18:49;;;;;;;9.05;2.90;;;6.20;99.90;;;;;;5032655;28;20026;-60
2021/04/11 08:21:28;;;;;;;8.35;3.28;;;6.00;99.90;;;;;;5033949;28;20083;-60
2021/04/11 08:24:03;;;;;;;9.48;2.60;;;6.20;99.90;;;;;;5034163;28;20585;-60
2021/04/11 08:26:54;;;;;;;6.13;2.22;;;6.40;99.90;;;;;;5034187;28;20470;-60
2021/04/11 08:29:31;;;;;;;7.00;2.30;;;6.50;99.90;;;;;;5034270;28;20029;-60
2021/04/11 08:32:22;;;;;;;6.35;2.33;;;6.50;99.90;;;;;;5034136;28;20554;-60
2021/04/11 08:35:02;;;;;;;10.45;1.95;;;6.50;99.90;;;;;;5033801;28;20458;-60
2021/04/11 08:37:52;;;;;;;6.45;2.10;;;6.70;99.90;;;;;;5034369;28;20021;-60
2021/04/11 08:40:26;;;;;;;7.22;1.70;;;6.70;99.90;;;;;;5033845;28;20033;-60
2021/04/11 08:43:31;;;;;;;6.95;2.00;;;6.80;99.90;;;;;;5033786;28;20371;-60
2021/04/11 08:46:18;;;;;;;11.70;2.00;;;6.70;99.90;;;;;;5033974;28;20063;-60
2021/04/11 08:48:45;;;;;;;5.20;1.70;;;6.70;99.90;;;;;;5034025;28;20026;-60
2021/04/11 08:51:22;;;;;;;9.35;2.55;;;6.70;99.90;;;;;;5033802;28;20074;-60
2021/04/11 08:54:07;;;;;;;7.53;2.17;;;6.80;99.90;;;;;;5033462;28;20049;-60
2021/04/11 08:56:42;;;;;;;7.32;2.00;;;6.90;99.90;;;;;;5033158;28;20095;-60
2021/04/11 08:59:14;;;;;;;8.63;2.03;;;7.10;99.90;;;;;;5033056;28;20030;-60
2021/04/11 09:01:48;;;;;;;6.27;1.47;;;7.40;99.90;;;;;;5033348;28;20051;-60
2021/04/11 09:04:36;;;;;;;6.63;1.58;;;8.10;99.90;;;;;;5033250;28;20386;-60
2021/04/11 09:07:40;;;;;;;5.30;1.52;;;8.90;99.90;;;;;;5033203;28;20024;-60
2021/04/11 09:10:36;;;;;;;5.18;1.60;;;10.00;99.90;;;;;;5031831;28;20089;-60
2021/04/11 09:13:40;;;;;;;6.80;1.58;;;10.10;99.90;;;;;;5033266;28;20026;-60
2021/04/11 09:16:42;;;;;;;3.90;1.27;;;9.40;99.90;;;;;;5022586;28;20048;-60
2021/04/11 09:19:18;;;;;;;6.63;1.70;;;8.30;99.90;;;;;;5019461;28;20494;-60
2021/04/11 09:21:55;;;;;;;4.22;1.77;;;7.60;99.90;;;;;;5033412;28;20100;-60
2021/04/11 09:24:29;;;;;;;7.72;1.75;;;7.40;99.90;;;;;;5033042;28;20029;-60
2021/04/11 09:27:03;;;;;;;6.07;1.48;;;7.30;99.90;;;;;;5033222;28;20017;-60
2021/04/11 09:29:38;;;;;;;6.90;1.80;;;7.10;99.90;;;;;;5032893;28;20470;-60
2021/04/11 09:32:28;;;;;;;6.22;2.00;;;6.90;99.90;;;;;;5033530;28;20036;-60
2021/04/11 09:35:29;;;;;;;6.32;1.92;;;6.80;99.90;;;;;;5031538;28;20029;-60
2021/04/11 09:38:18;;;;;;;7.63;2.03;;;6.70;99.90;;;;;;5033151;28;20025;-60
2021/04/11 09:40:59;;;;;;;3.95;2.05;;;6.70;99.90;;;;;;5031469;28;20505;-60
2021/04/11 09:43:30;;;;;;;12.13;3.72;;;6.70;99.90;;;;;;5032743;28;20024;-60
2021/04/11 09:46:29;;;;;;;5.07;1.58;;;6.90;99.90;;;;;;5031032;28;20029;-60
2021/04/11 09:49:10;;;;;;;3.15;1.60;;;7.00;99.90;;;;;;5032087;28;20018;-60
2021/04/11 09:51:35;;;;;;;4.30;1.40;;;7.00;99.90;;;;;;5032423;28;20034;-60
2021/04/11 09:54:28;;;;;;;5.43;1.65;;;7.10;99.90;;;;;;5030000;28;20108;-59
2021/04/11 09:57:04;;;;;;;;;;;7.20;99.90;;;;;;5032927;28;20091;-60
2021/04/11 09:59:59;;;;;;;3.78;1.23;;;7.20;99.90;;;;;;5031214;28;19943;-60
2021/04/11 10:02:52;;;;;;;5.03;1.17;;;7.10;99.90;;;;;;5032323;28;20021;-60
2021/04/11 10:05:32;;;;;;;9.05;1.52;;;7.00;99.90;;;;;;5033141;28;20021;-60
2021/04/11 10:08:09;;;;;;;5.32;1.40;;;6.90;99.90;;;;;;5032346;28;20021;-60
2021/04/11 10:11:05;;;;;;;4.70;1.30;;;6.80;99.90;;;;;;5030941;28;20079;-60
2021/04/11 10:13:57;;;;;;;7.57;1.50;;;7.00;99.90;;;;;;5030751;28;20589;-60
2021/04/11 10:16:28;;;;;;;6.30;1.53;;;7.10;99.90;;;;;;5032106;28;20021;-60
2021/04/11 10:19:15;;;;;;;5.60;1.83;;;7.20;99.90;;;;;;5032213;28;20284;-60
2021/04/11 10:21:54;;;;;;;5.53;1.70;;;7.40;99.90;;;;;;5030592;28;20132;-60
2021/04/11 10:24:40;;;;;;;5.20;1.70;;;7.70;99.90;;;;;;5031778;28;20025;-60
2021/04/11 10:27:20;;;;;;;3.50;1.30;;;8.30;99.90;;;;;;5014243;28;20478;-60
2021/04/11 10:29:48;;;;;;;6.72;1.73;;;9.40;99.90;;;;;;5031714;28;20093;-60
2021/04/11 10:32:40;;;;;;;6.95;1.58;;;10.40;99.90;;;;;;5031411;28;20176;-60
2021/04/11 10:35:25;;;;;;;3.13;1.00;;;10.90;99.90;;;;;;5031556;28;20375;-60
2021/04/11 10:38:13;;;;;;;3.00;1.08;;;10.80;99.90;;;;;;5031695;28;20071;-60
2021/04/11 10:41:07;;;;;;;5.15;1.70;;;11.30;99.90;;;;;;5031183;28;20060;-60
2021/04/11 10:43:43;;;;;;;5.30;1.42;;;12.10;99.90;;;;;;5031252;28;20039;-60
2021/04/11 10:46:21;;;;;;;3.30;1.30;;;11.40;99.90;;;;;;5031509;28;20096;-60
2021/04/11 10:49:18;;;;;;;3.20;1.48;;;11.00;99.90;;;;;;5031125;28;20035;-60
2021/04/11 10:52:06;;;;;;;8.68;2.33;;;11.10;99.90;;;;;;5031386;28;20024;-60
2021/04/11 10:54:51;;;;;;;6.43;2.83;;;10.20;99.90;;;;;;5010836;28;20095;-60
2021/04/11 10:57:45;;;;;;;4.82;2.15;;;9.40;99.90;;;;;;5031179;28;20092;-60
2021/04/11 11:00:18;;;;;;;3.83;2.03;;;8.90;99.90;;;;;;5032516;28;20033;-60
2021/04/11 11:03:23;;;;;;;5.53;1.77;;;8.70;99.90;;;;;;5031018;28;20107;-60
2021/04/11 11:06:01;;;;;;;5.10;1.40;;;8.40;99.90;;;;;;5031549;28;20029;-60
2021/04/11 11:08:47;;;;;;;3.03;1.25;;;8.60;99.90;;;;;;5029850;28;20433;-60
2021/04/11 11:11:27;;;;;;;3.42;1.15;;;9.00;99.90;;;;;;5031083;28;20432;-60
2021/04/11 11:14:17;;;;;;;2.58;1.25;;;9.10;99.90;;;;;;5031054;28;20389;-60
2021/04/11 11:17:04;;;;;;;3.20;1.48;;;9.10;99.90;;;;;;5031305;28;20025;-60
2021/04/11 11:19:43;;;;;;;6.65;1.40;;;9.30;99.90;;;;;;5029550;28;20559;-60
2021/04/11 11:22:46;;;;;;;3.90;1.75;;;9.50;99.90;;;;;;5031408;28;20018;-60
2021/04/11 11:25:31;;;;;;;3.03;1.23;;;9.30;99.90;;;;;;5030732;28;20100;-60
2021/04/11 11:28:19;;;;;;;4.80;1.17;;;8.80;99.90;;;;;;5029842;28;20025;-60
2021/04/11 11:31:11;;;;;;;5.63;1.50;;;8.40;99.90;;;;;;5030639;28;20076;-60
2021/04/11 11:33:57;;;;;;;4.05;1.30;;;7.90;99.90;;;;;;5030810;28;20022;-60
2021/04/11 11:36:41;;;;;;;3.42;1.58;;;7.80;99.90;;;;;;5031233;28;20404;-60
2021/04/11 11:39:41;;;;;;;6.85;1.40;;;8.00;99.90;;;;;;5031086;28;20076;-60
2021/04/11 11:42:28;;;;;;;4.78;1.73;;;8.50;99.90;;;;;;5030873;28;20033;-60
2021/04/11 11:45:03;;;;;;;4.05;1.38;;;9.40;99.90;;;;;;5030805;28;20022;-60
2021/04/11 11:47:49;;;;;;;10.98;1.92;;;10.40;99.90;;;;;;5031036;28;20462;-60
2021/04/11 11:50:55;;;;;;;5.07;1.35;;;11.30;99.90;;;;;;5029303;28;20021;-60
2021/04/11 11:53:56;;;;;;;7.63;1.90;;;11.50;99.90;;;;;;5029063;28;20064;-60
2021/04/11 11:56:31;;;;;;;7.47;1.70;;;11.20;99.90;;;;;;5030308;28;20033;-60
2021/04/11 11:59:12;;;;;;;8.10;2.45;;;10.30;99.90;;;;;;5030341;28;20108;-61
2021/04/11 12:01:56;;;;;;;2.85;1.30;;;9.90;99.90;;;;;;5029347;28;20018;-61
2021/04/11 12:04:46;;;;;;;5.20;1.27;;;9.10;99.90;;;;;;5030536;28;20052;-60
2021/04/11 12:07:27;;;;;;;5.13;1.45;;;8.80;99.90;;;;;;5030538;28;20026;-60
2021/04/11 12:10:25;;;;;;;2.85;0.82;;;8.90;99.90;;;;;;5030728;28;20029;-60
2021/04/11 12:13:00;;;;;;;6.05;1.00;;;9.90;99.90;;;;;;5030301;28;20024;-60
2021/04/11 12:15:46;;;;;;;4.60;1.23;;;10.70;98.80;;;;;;5030545;28;20060;-60
2021/04/11 12:18:19;;;;;;;4.55;1.13;;;10.00;98.20;;;;;;5022676;28;20037;-60
2021/04/11 12:21:04;;;;;;;4.88;1.25;;;9.40;99.90;;;;;;5034041;28;20022;-60
2021/04/11 12:23:40;;;;;;;5.03;1.20;;;9.20;99.90;;;;;;5034167;28;20048;-60
2021/04/11 12:26:18;;;;;;;3.83;1.50;;;8.80;99.90;;;;;;5034150;28;20045;-60
2021/04/11 12:28:47;;;;;;;4.63;1.50;;;8.60;99.90;;;;;;5033762;28;20028;-60
2021/04/11 12:31:35;;;;;;;2.58;1.25;;;8.80;99.90;;;;;;5033797;28;20470;-60
2021/04/11 12:34:15;;;;;;;2.92;1.05;;;9.00;99.90;;;;;;5033791;28;20106;-61
2021/04/11 12:37:29;;;;;;;5.45;1.50;;;10.30;99.90;;;;;;5032783;28;20029;-61
2021/04/11 12:40:37;;;;;;;3.83;1.67;;;11.40;97.90;;;;;;4994865;28;20519;-61
2021/04/11 12:43:16;;;;;;;5.18;1.40;;;11.00;98.20;;;;;;5022979;28;20068;-61
2021/04/11 12:45:48;;;;;;;5.93;1.38;;;10.20;98.00;;;;;;5033543;28;20033;-61
2021/04/11 12:48:28;;;;;;;4.17;1.40;;;10.00;98.70;;;;;;5033641;28;20018;-60
2021/04/11 12:51:25;;;;;;;5.20;1.20;;;9.80;99.40;;;;;;5033963;28;20060;-60
2021/04/11 12:53:59;;;;;;;3.35;1.02;;;9.80;99.90;;;;;;5024734;28;20037;-60
2021/04/11 12:56:27;;;;;;;1.63;0.80;;;10.40;98.80;;;;;;5033372;28;20409;-60
2021/04/11 12:58:55;;;;;;;2.13;0.70;;;10.90;93.50;;;;;;5033254;28;20033;-60
2021/04/11 13:01:27;;;;;;;1.33;0.80;;;11.80;90.20;;;;;;5033197;28;20017;-60
2021/04/11 13:03:53;;;;;;;2.83;0.73;;;12.90;81.90;;;;;;5033148;28;20018;-60
2021/04/11 13:06:23;;;;;;;2.67;0.90;;;13.50;74.10;;;;;;5033734;28;20037;-60
2021/04/11 13:09:20;;;;;;;4.78;0.80;;;14.60;68.60;;;;;;5032965;28;20036;-62
2021/04/11 13:12:05;;;;;;;3.72;0.90;;;15.00;61.80;;;;;;5031632;28;20022;-61
2021/04/11 13:14:45;;;;;;;2.75;0.95;;;13.30;62.00;;;;;;5033412;28;20497;-60
2021/04/11 13:17:41;;;;;;;5.55;1.40;;;11.50;66.50;;;;;;5033422;28;20028;-60
2021/04/11 13:20:23;;;;;;;3.92;1.05;;;10.30;82.90;;;;;;5032946;28;20120;-60
2021/04/11 13:22:53;;;;;;;5.05;1.27;;;10.50;89.20;;;;;;5032941;28;20018;-60
2021/04/11 13:25:28;;;;;;;5.57;1.23;;;10.80;87.90;;;;;;5032512;28;20024;-60
2021/04/11 13:28:05;;;;;;;2.95;1.08;;;11.80;80.70;;;;;;5030541;28;20021;-60
2021/04/11 13:30:43;;;;;;;2.72;0.77;;;13.00;74.10;;;;;;5032755;28;20045;-60
2021/04/11 13:33:20;;;;;;;2.30;0.88;;;13.90;65.80;;;;;;5032736;28;20025;-60
2021/04/11 13:35:45;;;;;;;3.40;0.88;;;13.50;64.00;;;;;;5031097;28;20029;-60
2021/04/11 13:38:20;;;;;;;3.97;0.98;;;12.90;64.40;;;;;;5032911;28;20029;-60
2021/04/11 13:40:46;;;;;;;4.05;1.10;;;11.70;68.20;;;;;;5031705;28;20025;-60
2021/04/11 13:43:30;;;;;;;6.97;1.83;;;11.20;73.50;;;;;;5032834;28;20470;-60
2021/04/11 13:46:25;;;;;;;5.85;1.50;;;10.60;76.90;;;;;;5032646;28;20139;-61
2021/04/11 13:49:00;;;;;;;3.95;1.33;;;10.60;80.90;;;;;;5032530;28;20029;-61